createdAt,value
2019-04-06T00:04:59.164Z,39.27
2019-04-06T00:07:47.275Z,41.57
2019-04-06T00:10:35.314Z,35.40
2019-04-06T00:13:23.407Z,36.50
2019-04-06T00:16:11.582Z,38.33
2019-04-06T00:18:59.620Z,36.20
2019-04-06T00:21:47.657Z,39.53
2019-04-06T00:24:35.696Z,39.90
2019-04-06T00:27:24.731Z,36.17
2019-04-06T00:33:11.473Z,36.27
2019-04-06T00:35:59.509Z,41.90
2019-04-06T00:38:47.889Z,37.33
2019-04-06T00:41:35.968Z,39.70
2019-04-06T00:44:24.006Z,38.57
2019-04-06T00:47:12.104Z,44.97
2019-04-06T00:50:00.149Z,40.93
2019-04-06T00:52:48.426Z,39.33
2019-04-06T00:55:36.869Z,41.83
2019-04-06T00:58:24.982Z,42.23
2019-04-06T01:01:13.417Z,42.27
2019-04-06T01:04:01.450Z,45.87
2019-04-06T01:06:42.757Z,43.27
2019-04-06T01:09:23.973Z,49.10
2019-04-06T01:12:04.974Z,44.13
2019-04-06T01:14:45.646Z,43.90
2019-04-06T01:17:26.235Z,45.27
2019-04-06T01:20:07.085Z,43.80
2019-04-06T01:22:48.234Z,51.37
2019-04-06T01:25:28.502Z,44.03
2019-04-06T01:28:09.153Z,40.23
2019-04-06T01:30:49.970Z,46.80
2019-04-06T01:33:31.028Z,37.70
2019-04-06T01:36:11.886Z,47.77
2019-04-06T01:38:52.881Z,42.33
2019-04-06T01:41:33.610Z,42.00
2019-04-06T01:44:14.612Z,44.87
2019-04-06T01:46:55.566Z,45.47
2019-04-06T01:49:36.846Z,41.20
2019-04-06T01:52:18.062Z,44.67
2019-04-06T01:54:59.198Z,43.07
2019-04-06T01:57:40.481Z,49.83
2019-04-06T02:00:21.348Z,50.70
2019-04-06T02:03:01.910Z,52.50
2019-04-06T02:05:42.575Z,48.70
2019-04-06T02:08:23.270Z,41.83
2019-04-06T02:11:04.584Z,46.63
2019-04-06T02:13:45.817Z,51.43
2019-04-06T02:16:26.586Z,55.23
2019-04-06T02:19:07.227Z,47.47
2019-04-06T02:21:48.477Z,45.90
2019-04-06T02:24:28.894Z,48.03
2019-04-06T02:27:09.751Z,53.47
2019-04-06T02:33:17.224Z,47.10
2019-04-06T02:36:17.698Z,49.87
2019-04-06T02:39:17.725Z,45.90
2019-04-06T02:42:06.807Z,49.27
2019-04-06T02:44:47.305Z,53.63
2019-04-06T02:47:28.137Z,50.53
2019-04-06T02:50:08.843Z,47.60
2019-04-06T02:52:49.531Z,56.33
2019-04-06T02:55:30.730Z,48.73
2019-04-06T02:58:11.508Z,52.97
2019-04-06T03:00:52.406Z,47.53
2019-04-06T03:03:32.790Z,50.63
2019-04-06T03:06:13.679Z,58.30
2019-04-06T03:08:54.405Z,53.87
2019-04-06T03:11:35.003Z,50.03
2019-04-06T03:14:15.791Z,57.87
2019-04-06T03:16:56.350Z,47.33
2019-04-06T03:19:37.204Z,53.60
2019-04-06T03:22:18.319Z,48.70
2019-04-06T03:24:58.852Z,52.33
2019-04-06T03:27:39.318Z,49.13
2019-04-06T03:30:20.265Z,48.47
2019-04-06T03:33:01.055Z,48.70
2019-04-06T03:35:46.977Z,52.80
2019-04-06T03:38:24.215Z,51.13
2019-04-06T03:41:04.631Z,50.03
2019-04-06T03:43:45.378Z,48.90
2019-04-06T03:46:26.069Z,56.67
2019-04-06T03:49:07.117Z,54.20
2019-04-06T03:51:48.146Z,51.40
2019-04-06T03:54:29.191Z,60.73
2019-04-06T03:57:15.874Z,55.70
2019-04-06T03:59:52.987Z,51.97
2019-04-06T04:02:33.571Z,50.60
2019-04-06T04:05:14.332Z,61.30
2019-04-06T04:07:55.587Z,55.00
2019-04-06T04:10:36.417Z,53.03
2019-04-06T04:13:16.958Z,53.53
2019-04-06T04:15:57.967Z,58.60
2019-04-06T04:18:37.077Z,47.90
2019-04-06T04:21:25.190Z,49.33
2019-04-06T04:24:13.242Z,47.90
2019-04-06T04:27:01.309Z,49.67
2019-04-06T04:29:49.346Z,46.13
2019-04-06T04:32:37.383Z,46.97
2019-04-06T04:35:25.485Z,47.37
2019-04-06T04:38:13.520Z,47.43
2019-04-06T04:44:10.654Z,46.00
2019-04-06T04:46:58.690Z,50.37
2019-04-06T04:49:46.729Z,46.17
2019-04-06T04:52:34.833Z,45.90
2019-04-06T04:55:22.877Z,42.37
2019-04-06T04:58:10.994Z,43.27
2019-04-06T05:00:59.046Z,44.47
2019-04-06T05:03:47.092Z,50.23
2019-04-06T05:06:27.477Z,42.70
2019-04-06T05:09:08.260Z,39.30
2019-04-06T05:11:49.118Z,38.13
2019-04-06T05:14:29.756Z,37.77
2019-04-06T05:17:10.660Z,39.90
2019-04-06T05:19:51.702Z,36.93
2019-04-06T05:22:32.325Z,47.27
2019-04-06T05:25:13.266Z,38.80
2019-04-06T05:27:53.614Z,41.57
2019-04-06T05:30:34.265Z,39.03
2019-04-06T05:33:15.026Z,44.43
2019-04-06T05:35:56.039Z,40.77
2019-04-06T05:38:37.178Z,42.87
2019-04-06T05:41:17.566Z,35.13
2019-04-06T05:43:58.346Z,38.03
2019-04-06T05:46:38.843Z,37.63
2019-04-06T05:49:19.759Z,35.47
2019-04-06T05:52:00.470Z,40.00
2019-04-06T05:54:41.608Z,43.80
2019-04-06T05:57:22.662Z,37.17
2019-04-06T06:00:04.660Z,37.67
2019-04-06T06:02:45.378Z,39.80
2019-04-06T06:05:26.276Z,42.07
2019-04-06T06:08:05.402Z,41.63
2019-04-06T06:10:53.621Z,39.03
2019-04-06T06:13:41.652Z,38.17
2019-04-06T06:16:29.693Z,36.80
2019-04-06T06:19:17.740Z,39.27
2019-04-06T06:22:06.012Z,40.50
2019-04-06T06:24:54.308Z,39.13
2019-04-06T06:27:42.334Z,36.13
2019-04-06T06:30:30.376Z,43.20
2019-04-06T06:33:18.714Z,35.23
2019-04-06T06:36:06.853Z,36.33
2019-04-06T06:38:54.883Z,33.87
2019-04-06T06:41:42.916Z,36.00
2019-04-06T06:44:31.010Z,34.73
2019-04-06T06:47:19.268Z,36.43
2019-04-06T06:50:07.724Z,37.37
2019-04-06T06:52:57.198Z,35.17
2019-04-06T06:55:45.473Z,38.37
2019-04-06T06:58:33.484Z,33.83
2019-04-06T07:01:21.534Z,40.03
2019-04-06T07:04:09.806Z,35.13
2019-04-06T07:06:50.483Z,34.07
2019-04-06T07:09:29.663Z,41.67
2019-04-06T07:12:17.701Z,36.23
2019-04-06T07:15:06.218Z,44.30
2019-04-06T07:17:54.245Z,41.70
2019-04-06T07:20:42.409Z,38.60
2019-04-06T07:23:30.433Z,37.60
2019-04-06T07:26:18.555Z,45.63
2019-04-06T07:29:06.648Z,39.63
2019-04-06T07:31:54.703Z,38.30
2019-04-06T07:34:42.741Z,36.57
2019-04-06T07:37:31.108Z,33.93
2019-04-06T07:40:19.152Z,34.33
2019-04-06T07:43:07.522Z,33.63
2019-04-06T07:45:57.477Z,38.95
2019-04-06T07:48:47.213Z,33.98
2019-04-06T07:51:35.257Z,33.85
2019-04-06T07:57:32.416Z,31.10
2019-04-06T08:00:20.642Z,33.73
2019-04-06T08:03:08.646Z,30.62
2019-04-06T08:05:49.111Z,31.45
2019-04-06T08:08:30.436Z,27.95
2019-04-06T08:11:11.304Z,33.98
2019-04-06T08:13:51.690Z,28.45
2019-04-06T08:16:32.661Z,33.33
2019-04-06T08:19:13.547Z,32.25
2019-04-06T08:21:54.232Z,32.63
2019-04-06T08:24:34.905Z,29.90
2019-04-06T08:27:15.684Z,32.75
2019-04-06T08:29:56.099Z,31.33
2019-04-06T08:32:36.844Z,33.18
2019-04-06T08:35:25.640Z,29.20
2019-04-06T08:38:00.431Z,29.95
2019-04-06T08:40:41.360Z,26.00
2019-04-06T08:43:21.766Z,29.45
2019-04-06T08:46:02.530Z,29.92
2019-04-06T08:48:43.115Z,28.20
2019-04-06T08:51:23.873Z,29.37
2019-04-06T08:54:04.406Z,29.25
2019-04-06T08:56:44.901Z,29.02
2019-04-06T08:59:25.810Z,30.85
2019-04-06T09:02:06.521Z,28.92
2019-04-06T09:04:47.404Z,30.00
2019-04-06T09:07:28.234Z,28.05
2019-04-06T09:10:08.784Z,28.55
2019-04-06T09:12:49.604Z,26.25
2019-04-06T09:15:30.036Z,26.33
2019-04-06T09:18:10.684Z,26.95
2019-04-06T09:20:51.257Z,22.70
2019-04-06T09:23:32.196Z,23.92
2019-04-06T09:26:12.514Z,21.00
2019-04-06T09:28:53.313Z,23.85
2019-04-06T09:31:34.262Z,20.60
2019-04-06T09:34:15.006Z,21.35
2019-04-06T09:36:55.542Z,21.42
2019-04-06T09:39:36.258Z,22.37
2019-04-06T09:42:17.042Z,22.75
2019-04-06T09:45:16.987Z,21.80
2019-04-06T09:48:08.390Z,32.63
2019-04-06T09:51:13.701Z,19.90
2019-04-06T09:54:13.451Z,16.55
2019-04-06T09:57:13.705Z,16.90
2019-04-06T10:00:13.139Z,20.57
2019-04-06T10:03:12.594Z,16.07
2019-04-06T10:06:12.026Z,15.28
2019-04-06T10:09:01.821Z,14.65
2019-04-06T10:12:03.525Z,20.40
2019-04-06T10:15:03.272Z,16.52
2019-04-06T10:18:02.885Z,17.40
2019-04-06T10:20:53.405Z,12.90
2019-04-06T10:23:53.518Z,13.25
2019-04-06T10:26:42.286Z,12.43
2019-04-06T10:29:48.899Z,13.58
2019-04-06T10:32:44.805Z,12.28
2019-04-06T10:35:45.017Z,11.63
2019-04-06T10:38:50.848Z,13.30
2019-04-06T10:41:51.962Z,13.28
2019-04-06T10:44:51.546Z,13.45
2019-04-06T10:47:57.268Z,15.10
2019-04-06T10:51:03.224Z,12.37
2019-04-06T10:53:55.588Z,13.28
2019-04-06T10:56:45.424Z,15.75
2019-04-06T10:59:45.313Z,11.33
2019-04-06T11:02:45.540Z,12.43
2019-04-06T11:05:48.682Z,11.03
2019-04-06T11:08:48.608Z,13.10
2019-04-06T11:11:48.272Z,16.05
2019-04-06T11:14:47.750Z,10.15
2019-04-06T11:17:47.266Z,11.15
2019-04-06T11:20:37.806Z,10.90
2019-04-06T11:23:37.991Z,36.95
2019-04-06T11:26:37.502Z,10.82
2019-04-06T11:29:36.937Z,9.73
2019-04-06T11:32:33.592Z,9.25
2019-04-06T11:35:31.422Z,8.20
2019-04-06T11:38:24.217Z,7.92
2019-04-06T11:41:23.994Z,9.03
2019-04-06T11:44:24.303Z,7.95
2019-04-06T11:47:14.318Z,7.15
2019-04-06T11:50:14.434Z,9.18
2019-04-06T11:53:17.138Z,7.25
2019-04-06T11:56:18.586Z,6.40
2019-04-06T11:59:17.218Z,6.05
2019-04-06T12:02:17.393Z,6.40
2019-04-06T12:05:06.461Z,7.60
2019-04-06T12:08:00.345Z,6.80
2019-04-06T12:11:00.759Z,11.28
2019-04-06T12:13:49.950Z,6.95
2019-04-06T12:16:49.740Z,6.20
2019-04-06T12:19:37.866Z,8.13
2019-04-06T12:22:37.313Z,9.28
2019-04-06T12:25:37.043Z,8.23
2019-04-06T12:28:27.712Z,6.87
2019-04-06T12:31:15.198Z,9.13
2019-04-06T12:34:16.290Z,7.17
2019-04-06T12:37:15.919Z,6.30
2019-04-06T12:40:15.419Z,6.83
2019-04-06T12:43:07.541Z,6.80
2019-04-06T12:46:07.991Z,6.45
2019-04-06T12:49:12.296Z,9.08
2019-04-06T12:52:03.837Z,8.40
2019-04-06T12:54:56.616Z,7.03
2019-04-06T12:58:02.542Z,6.17
2019-04-06T13:01:02.053Z,7.78
2019-04-06T13:03:54.476Z,6.85
2019-04-06T13:06:54.462Z,9.43
2019-04-06T13:09:53.929Z,8.45
2019-04-06T13:12:51.161Z,9.60
2019-04-06T13:15:46.889Z,8.40
2019-04-06T13:18:44.242Z,8.25
2019-04-06T13:21:40.247Z,8.75
2019-04-06T13:24:41.766Z,9.00
2019-04-06T13:27:41.275Z,7.90
2019-04-06T13:30:34.376Z,7.72
2019-04-06T13:33:34.692Z,7.50
2019-04-06T13:36:34.721Z,8.05
2019-04-06T13:39:40.910Z,7.85
2019-04-06T13:42:40.379Z,7.10
2019-04-06T13:45:40.064Z,9.65
2019-04-06T13:48:41.154Z,7.72
2019-04-06T13:51:29.911Z,8.43
2019-04-06T13:54:29.954Z,9.53
2019-04-06T13:57:30.185Z,9.33
2019-04-06T14:00:19.939Z,8.35
2019-04-06T14:03:20.226Z,9.35
2019-04-06T14:06:18.688Z,9.28
2019-04-06T14:09:26.672Z,8.20
2019-04-06T14:12:34.051Z,9.48
2019-04-06T14:15:41.188Z,8.48
2019-04-06T14:18:48.385Z,8.88
2019-04-06T14:21:55.787Z,8.18
2019-04-06T14:25:02.962Z,8.88
2019-04-06T14:28:10.045Z,8.35
2019-04-06T14:31:27.293Z,9.18
2019-04-06T14:34:26.262Z,8.73
2019-04-06T14:37:33.350Z,7.28
2019-04-06T14:40:40.430Z,8.33
2019-04-06T14:43:47.722Z,7.92
2019-04-06T14:47:03.486Z,7.33
2019-04-06T14:50:03.606Z,8.43
2019-04-06T14:53:09.705Z,8.30
2019-04-06T14:56:09.202Z,8.00
2019-04-06T14:59:06.121Z,8.78
2019-04-06T15:02:15.069Z,8.00
2019-04-06T15:05:08.172Z,8.65
2019-04-06T15:07:57.958Z,9.10
2019-04-06T15:10:51.009Z,7.62
2019-04-06T15:13:40.885Z,7.45
2019-04-06T15:16:37.882Z,7.47
2019-04-06T15:19:45.024Z,8.38
2019-04-06T15:22:42.477Z,12.93
2019-04-06T15:25:49.570Z,8.23
2019-04-06T15:28:56.668Z,11.22
2019-04-06T15:31:55.537Z,8.88
2019-04-06T15:34:50.942Z,11.30
2019-04-06T15:37:58.013Z,10.28
2019-04-06T15:41:05.188Z,8.38
2019-04-06T15:44:12.316Z,13.25
2019-04-06T15:47:19.439Z,9.43
2019-04-06T15:50:15.103Z,11.60
2019-04-06T15:53:22.171Z,11.12
2019-04-06T15:56:29.339Z,9.90
2019-04-06T15:59:36.510Z,9.73
2019-04-06T16:02:43.590Z,11.35
2019-04-06T16:05:50.949Z,10.53
2019-04-06T16:08:54.176Z,8.08
2019-04-06T16:11:55.066Z,10.10
2019-04-06T16:14:58.330Z,9.53
2019-04-06T16:18:01.351Z,12.80
2019-04-06T16:20:58.938Z,10.23
2019-04-06T16:24:04.653Z,8.95
2019-04-06T16:27:03.536Z,14.25
2019-04-06T16:30:02.993Z,11.80
2019-04-06T16:33:02.765Z,9.95
2019-04-06T16:36:02.437Z,9.65
2019-04-06T16:39:09.547Z,11.30
2019-04-06T16:42:17.049Z,10.68
2019-04-06T16:45:24.358Z,11.18
2019-04-06T16:48:31.569Z,10.03
2019-04-06T16:51:38.782Z,13.15
2019-04-06T16:54:42.386Z,14.07
2019-04-06T16:57:49.996Z,9.55
2019-04-06T17:00:57.172Z,9.03
2019-04-06T17:03:45.672Z,8.53
2019-04-06T17:06:33.746Z,10.65
2019-04-06T17:09:35.002Z,11.20
2019-04-06T17:12:38.233Z,14.25
2019-04-06T17:15:38.036Z,8.28
2019-04-06T17:18:37.667Z,10.98
2019-04-06T17:21:29.135Z,15.08
2019-04-06T17:24:24.422Z,14.23
2019-04-06T17:30:11.120Z,11.35
2019-04-06T17:33:03.265Z,9.23
2019-04-06T17:36:03.550Z,11.50
2019-04-06T17:39:03.791Z,9.30
2019-04-06T17:42:01.182Z,11.08
2019-04-06T17:45:01.431Z,9.23
2019-04-06T17:48:01.236Z,7.08
2019-04-06T17:50:52.020Z,44.55
2019-04-06T17:53:52.094Z,26.23
2019-04-06T17:56:58.054Z,10.35
2019-04-06T17:59:58.896Z,6.95
2019-04-06T18:02:58.677Z,36.93
2019-04-06T18:09:22.142Z,7.40
2019-04-06T18:12:21.573Z,7.50
2019-04-06T18:15:02.331Z,5.85
2019-04-06T18:17:31.341Z,7.83
2019-04-06T18:20:19.665Z,7.30
2019-04-06T18:23:09.590Z,8.47
2019-04-06T18:25:58.970Z,7.10
2019-04-06T18:28:47.112Z,5.87
2019-04-06T18:31:54.206Z,8.20
2019-04-06T18:34:42.325Z,7.97
2019-04-06T18:40:38.397Z,8.08
2019-04-06T18:43:26.449Z,11.80
2019-04-06T18:46:15.912Z,9.30
2019-04-06T18:49:04.424Z,11.17
2019-04-06T18:51:52.737Z,11.93
2019-04-06T18:54:40.785Z,9.33
2019-04-06T18:57:29.193Z,9.50
2019-04-06T19:00:17.593Z,5.63
2019-04-06T19:03:14.212Z,10.80
2019-04-06T19:05:49.884Z,14.93
2019-04-06T19:08:30.867Z,8.97
2019-04-06T19:11:00.041Z,8.97
2019-04-06T19:13:49.885Z,9.87
2019-04-06T19:16:39.277Z,9.27
2019-04-06T19:19:27.365Z,8.73
2019-04-06T19:22:15.481Z,6.80
2019-04-06T19:25:03.773Z,7.57
2019-04-06T19:27:51.930Z,6.53
2019-04-06T19:30:40.078Z,22.40
2019-04-06T19:33:30.537Z,13.00
2019-04-06T19:36:20.401Z,27.30
2019-04-06T19:39:30.777Z,23.30
2019-04-06T19:42:20.465Z,18.63
2019-04-06T19:45:10.441Z,12.70
2019-04-06T19:47:58.709Z,10.93
2019-04-06T19:50:46.866Z,15.20
2019-04-06T19:53:35.173Z,17.30
2019-04-06T19:56:23.342Z,14.73
2019-04-06T19:59:12.957Z,18.27
2019-04-06T20:02:01.281Z,15.67
2019-04-06T20:04:49.335Z,20.47
2019-04-06T20:07:29.989Z,36.90
2019-04-06T20:10:11.076Z,19.97
2019-04-06T20:16:14.093Z,40.63
2019-04-06T20:18:55.465Z,105.67
2019-04-06T20:21:36.181Z,61.47
2019-04-06T20:24:17.136Z,142.03
2019-04-06T20:26:58.868Z,87.13
2019-04-06T20:29:40.077Z,114.30
2019-04-06T20:32:21.593Z,65.73
2019-04-06T20:35:02.434Z,18.73
2019-04-06T20:37:43.366Z,14.73
2019-04-06T20:40:24.270Z,9.13
2019-04-06T20:43:05.446Z,8.20
2019-04-06T20:45:46.684Z,8.07
2019-04-06T20:48:27.314Z,9.10
2019-04-06T20:51:08.054Z,8.77
2019-04-06T20:53:48.794Z,6.77
2019-04-06T20:56:28.295Z,8.23
2019-04-06T20:59:16.766Z,5.67
2019-04-06T21:02:06.144Z,6.67
2019-04-06T21:04:54.422Z,5.97
2019-04-06T21:07:35.334Z,4.33
2019-04-06T21:10:16.439Z,4.63
2019-04-06T21:12:57.877Z,4.50
2019-04-06T21:15:39.528Z,5.47
2019-04-06T21:18:20.987Z,5.97
2019-04-06T21:21:01.301Z,5.83
2019-04-06T21:23:42.197Z,4.30
2019-04-06T21:26:22.595Z,6.20
2019-04-06T21:29:03.674Z,6.40
2019-04-06T21:31:44.751Z,4.97
2019-04-06T21:34:26.035Z,5.27
2019-04-06T21:37:07.147Z,5.50
2019-04-06T21:39:48.305Z,8.30
2019-04-06T21:42:29.610Z,6.37
2019-04-06T21:45:11.092Z,5.07
2019-04-06T21:47:51.521Z,4.57
2019-04-06T21:50:32.207Z,6.63
2019-04-06T21:53:12.886Z,4.20
2019-04-06T21:56:02.156Z,4.73
2019-04-06T21:58:36.475Z,6.60
2019-04-06T22:01:17.341Z,5.07
2019-04-06T22:03:58.629Z,4.47
2019-04-06T22:06:39.309Z,4.67
2019-04-06T22:09:19.907Z,5.50
2019-04-06T22:12:00.795Z,5.50
2019-04-06T22:14:41.670Z,4.00
2019-04-06T22:17:22.454Z,4.73
2019-04-06T22:20:03.180Z,3.87
2019-04-06T22:22:43.850Z,6.63
2019-04-06T22:25:24.499Z,2.83
2019-04-06T22:28:05.206Z,3.23
2019-04-06T22:30:45.977Z,4.77
2019-04-06T22:33:26.649Z,4.87
2019-04-06T22:36:07.703Z,3.40
2019-04-06T22:38:49.183Z,3.20
2019-04-06T22:41:31.062Z,2.20
2019-04-06T22:44:12.015Z,3.53
2019-04-06T22:46:53.086Z,7.73
2019-04-06T22:49:32.202Z,2.43
2019-04-06T22:52:20.535Z,4.53
2019-04-06T22:55:10.194Z,2.97
2019-04-06T22:57:58.494Z,5.30
2019-04-06T23:04:03.101Z,2.60
2019-04-06T23:09:40.526Z,2.97
2019-04-06T23:12:22.159Z,2.83
2019-04-06T23:15:02.674Z,3.63
2019-04-06T23:17:42.325Z,3.10
2019-04-06T23:20:30.358Z,4.33
2019-04-06T23:23:18.478Z,2.33
2019-04-06T23:26:06.626Z,2.90
2019-04-06T23:28:55.028Z,2.73
2019-04-06T23:31:43.164Z,4.33
2019-04-06T23:34:31.297Z,3.50
2019-04-06T23:37:19.633Z,3.57
2019-04-06T23:40:07.731Z,4.27
2019-04-06T23:42:55.901Z,2.93
2019-04-06T23:45:45.845Z,2.93
2019-04-06T23:48:33.880Z,3.23
2019-04-06T23:51:22.186Z,4.20
2019-04-06T23:54:10.486Z,3.13
2019-04-06T23:56:59.163Z,4.10
2019-04-06T23:59:48.879Z,3.87
